createdAt,value
2022-07-30T00:01:40.936Z,41.42
2022-07-30T00:04:07.700Z,45.15
2022-07-30T00:06:34.504Z,51.88
2022-07-30T00:09:01.250Z,49.13
2022-07-30T00:11:28.329Z,49.88
2022-07-30T00:13:55.571Z,45.80
2022-07-30T00:16:22.487Z,34.38
2022-07-30T00:18:49.254Z,30.35
2022-07-30T00:21:32.075Z,29.67
2022-07-30T00:24:04.004Z,24.58
2022-07-30T00:26:30.882Z,21.85
2022-07-30T00:28:57.741Z,20.30
2022-07-30T00:31:24.457Z,17.58
2022-07-30T00:33:51.206Z,17.50
2022-07-30T00:36:17.911Z,17.75
2022-07-30T00:38:44.621Z,17.58
2022-07-30T00:41:11.504Z,17.83
2022-07-30T00:43:39.324Z,18.08
2022-07-30T00:46:06.221Z,18.15
2022-07-30T00:48:32.949Z,18.75
2022-07-30T00:50:59.756Z,18.48
2022-07-30T00:53:26.610Z,18.60
2022-07-30T00:55:54.567Z,19.10
2022-07-30T00:58:21.308Z,19.50
2022-07-30T01:00:48.401Z,18.80
2022-07-30T01:03:15.153Z,19.58
2022-07-30T01:05:41.897Z,17.50
2022-07-30T01:08:08.589Z,19.23
2022-07-30T01:10:35.586Z,18.73
2022-07-30T01:13:02.461Z,19.50
2022-07-30T01:15:29.861Z,19.20
2022-07-30T01:18:00.075Z,19.25
2022-07-30T01:20:33.933Z,17.95
2022-07-30T01:23:27.169Z,19.40
2022-07-30T01:25:59.217Z,17.45
2022-07-30T01:28:35.948Z,19.77
2022-07-30T01:31:04.110Z,21.85
2022-07-30T01:33:31.601Z,20.30
2022-07-30T01:35:59.454Z,22.15
2022-07-30T01:38:27.513Z,22.40
2022-07-30T01:40:58.336Z,23.92
2022-07-30T01:43:26.113Z,22.15
2022-07-30T01:45:54.026Z,21.48
2022-07-30T01:48:22.767Z,19.25
2022-07-30T01:50:51.996Z,19.95
2022-07-30T01:53:23.216Z,19.98
2022-07-30T01:55:50.698Z,19.85
2022-07-30T01:58:19.785Z,19.77
2022-07-30T02:00:47.228Z,20.77
2022-07-30T02:03:14.031Z,19.10
2022-07-30T02:05:41.871Z,18.73
2022-07-30T02:08:16.690Z,19.02
2022-07-30T02:10:50.345Z,20.17
2022-07-30T02:13:28.120Z,18.13
2022-07-30T02:16:13.081Z,18.63
2022-07-30T02:18:56.976Z,17.88
2022-07-30T02:21:25.638Z,19.65
2022-07-30T02:24:06.263Z,20.65
2022-07-30T02:26:33.316Z,21.27
2022-07-30T02:29:01.715Z,19.92
2022-07-30T02:31:29.800Z,22.00
2022-07-30T02:33:59.289Z,22.67
2022-07-30T02:36:27.366Z,20.33
2022-07-30T02:38:54.772Z,21.45
2022-07-30T02:41:24.125Z,16.20
2022-07-30T02:43:52.490Z,20.73
2022-07-30T02:46:21.892Z,19.50
2022-07-30T02:48:49.315Z,20.30
2022-07-30T02:51:17.600Z,20.30
2022-07-30T02:53:46.633Z,20.92
2022-07-30T02:56:16.005Z,22.23
2022-07-30T02:58:44.445Z,19.38
2022-07-30T03:01:13.372Z,18.52
2022-07-30T03:03:42.843Z,18.02
2022-07-30T03:06:10.388Z,18.17
2022-07-30T03:08:37.477Z,17.15
2022-07-30T03:11:04.966Z,18.92
2022-07-30T03:13:31.746Z,17.67
2022-07-30T03:15:59.338Z,18.20
2022-07-30T03:18:28.824Z,19.00
2022-07-30T03:20:57.289Z,17.48
2022-07-30T03:23:24.116Z,18.60
2022-07-30T03:26:01.968Z,18.33
2022-07-30T03:28:32.373Z,17.20
2022-07-30T03:30:59.647Z,17.73
2022-07-30T03:33:38.342Z,18.00
2022-07-30T03:36:07.264Z,17.17
2022-07-30T03:38:36.576Z,14.45
2022-07-30T03:41:04.563Z,17.40
2022-07-30T03:43:33.627Z,17.30
2022-07-30T03:46:03.440Z,16.23
2022-07-30T03:48:31.020Z,15.55
2022-07-30T03:50:58.967Z,14.15
2022-07-30T03:53:27.646Z,15.35
2022-07-30T03:55:54.731Z,17.90
2022-07-30T03:58:21.571Z,16.55
2022-07-30T04:00:50.389Z,27.70
2022-07-30T04:08:23.662Z,35.85
2022-07-30T04:10:51.764Z,29.70
2022-07-30T04:13:18.641Z,27.02
2022-07-30T04:16:40.511Z,24.90
2022-07-30T04:19:02.160Z,24.92
2022-07-30T04:21:29.430Z,24.35
2022-07-30T04:24:01.844Z,21.48
2022-07-30T04:26:35.636Z,18.75
2022-07-30T04:29:04.983Z,18.35
2022-07-30T04:31:40.638Z,15.82
2022-07-30T04:34:08.386Z,19.10
2022-07-30T04:36:35.981Z,19.98
2022-07-30T04:39:03.662Z,17.88
2022-07-30T04:41:48.242Z,18.40
2022-07-30T04:44:17.763Z,17.80
2022-07-30T04:46:44.626Z,17.73
2022-07-30T04:49:13.067Z,17.02
2022-07-30T04:51:40.919Z,16.90
2022-07-30T04:54:15.287Z,17.45
2022-07-30T04:56:52.528Z,18.75
2022-07-30T04:59:27.916Z,19.02
2022-07-30T05:01:56.869Z,19.08
2022-07-30T05:04:24.329Z,19.52
2022-07-30T05:06:52.569Z,17.48
2022-07-30T05:09:19.903Z,17.88
2022-07-30T05:11:53.811Z,18.92
2022-07-30T05:14:22.019Z,18.98
2022-07-30T05:16:49.479Z,18.90
2022-07-30T05:19:17.042Z,21.15
2022-07-30T05:21:43.752Z,19.63
2022-07-30T05:24:10.472Z,20.05
2022-07-30T05:26:37.165Z,18.80
2022-07-30T05:29:07.179Z,19.65
2022-07-30T05:31:34.234Z,34.05
2022-07-30T05:34:03.595Z,28.85
2022-07-30T05:36:31.059Z,20.33
2022-07-30T05:38:57.845Z,19.90
2022-07-30T05:41:31.856Z,18.63
2022-07-30T05:44:00.813Z,17.95
2022-07-30T05:46:28.103Z,18.02
2022-07-30T05:48:54.959Z,18.85
2022-07-30T05:51:22.423Z,19.73
2022-07-30T05:53:49.615Z,21.05
2022-07-30T05:56:16.328Z,19.63
2022-07-30T05:58:43.308Z,18.10
2022-07-30T06:01:10.157Z,15.45
2022-07-30T06:06:05.742Z,17.98
2022-07-30T06:08:32.500Z,16.20
2022-07-30T06:10:59.348Z,16.33
2022-07-30T06:13:26.338Z,16.40
2022-07-30T06:15:53.158Z,16.10
2022-07-30T06:18:20.108Z,15.88
2022-07-30T06:20:54.398Z,15.95
2022-07-30T06:23:22.116Z,15.88
2022-07-30T06:25:49.717Z,15.13
2022-07-30T06:31:05.248Z,15.60
2022-07-30T06:33:32.010Z,15.65
2022-07-30T06:35:59.094Z,14.88
2022-07-30T06:38:25.809Z,15.85
2022-07-30T06:40:52.829Z,16.73
2022-07-30T06:43:21.276Z,13.50
2022-07-30T06:45:48.146Z,15.48
2022-07-30T06:48:14.876Z,12.30
2022-07-30T06:50:41.922Z,14.20
2022-07-30T06:53:08.776Z,12.02
2022-07-30T06:55:35.523Z,13.05
2022-07-30T06:58:02.322Z,13.88
2022-07-30T07:00:29.004Z,13.25
2022-07-30T07:02:55.724Z,12.85
2022-07-30T07:05:23.683Z,13.20
2022-07-30T07:07:58.817Z,12.88
2022-07-30T07:10:26.501Z,12.55
2022-07-30T07:12:53.641Z,13.27
2022-07-30T07:15:22.217Z,13.15
2022-07-30T07:17:49.309Z,10.27
2022-07-30T07:20:16.010Z,12.15
2022-07-30T07:22:42.781Z,10.82
2022-07-30T07:25:12.143Z,12.35
2022-07-30T07:27:38.985Z,11.88
2022-07-30T07:30:07.328Z,12.15
2022-07-30T07:32:35.333Z,13.50
2022-07-30T07:35:02.222Z,11.90
2022-07-30T07:37:29.047Z,11.00
2022-07-30T07:39:55.770Z,14.68
2022-07-30T07:42:22.510Z,12.90
2022-07-30T07:44:49.317Z,11.80
2022-07-30T07:47:16.057Z,11.90
2022-07-30T07:49:42.832Z,11.25
2022-07-30T07:52:09.573Z,10.35
2022-07-30T07:54:36.285Z,11.02
2022-07-30T07:57:08.032Z,10.95
2022-07-30T07:59:40.103Z,11.48
2022-07-30T08:02:08.555Z,12.45
2022-07-30T08:04:36.047Z,7.30
2022-07-30T08:07:03.905Z,9.82
2022-07-30T08:09:43.542Z,10.80
2022-07-30T08:12:15.102Z,10.02
2022-07-30T08:14:41.833Z,9.52
2022-07-30T08:17:09.129Z,10.40
2022-07-30T08:19:36.107Z,9.40
2022-07-30T08:22:02.906Z,12.07
2022-07-30T08:24:29.584Z,9.70
2022-07-30T08:26:56.322Z,9.23
2022-07-30T08:29:23.108Z,9.68
2022-07-30T08:31:49.875Z,8.98
2022-07-30T08:34:16.715Z,8.00
2022-07-30T08:36:43.444Z,9.18
2022-07-30T08:39:10.173Z,10.13
2022-07-30T08:41:37.472Z,9.25
2022-07-30T08:44:06.937Z,9.38
2022-07-30T08:46:37.271Z,8.77
2022-07-30T08:49:07.787Z,9.43
2022-07-30T08:51:36.287Z,9.45
2022-07-30T08:54:04.548Z,8.18
2022-07-30T08:56:32.815Z,9.10
2022-07-30T08:59:02.894Z,9.27
2022-07-30T09:01:29.769Z,9.52
2022-07-30T09:03:56.569Z,8.93
2022-07-30T09:06:23.490Z,8.77
2022-07-30T09:08:50.226Z,9.00
2022-07-30T09:11:16.951Z,9.02
2022-07-30T09:13:44.726Z,8.60
2022-07-30T09:16:23.435Z,9.32
2022-07-30T09:18:51.076Z,8.43
2022-07-30T09:21:24.517Z,7.40
2022-07-30T09:24:02.556Z,7.53
2022-07-30T09:26:30.289Z,8.18
2022-07-30T09:29:18.465Z,8.32
2022-07-30T09:32:01.419Z,8.25
2022-07-30T09:34:35.147Z,7.88
2022-07-30T09:37:05.201Z,8.52
2022-07-30T09:39:42.092Z,9.90
2022-07-30T09:42:23.492Z,8.10
2022-07-30T09:44:50.558Z,6.03
2022-07-30T09:47:33.389Z,5.78
2022-07-30T09:50:08.644Z,7.15
2022-07-30T09:52:36.837Z,5.88
2022-07-30T09:55:12.007Z,7.88
2022-07-30T09:57:57.779Z,7.47
2022-07-30T10:00:27.162Z,7.57
2022-07-30T10:05:24.385Z,6.22
2022-07-30T10:07:58.338Z,6.82
2022-07-30T10:10:27.722Z,6.90
2022-07-30T10:13:04.454Z,7.43
2022-07-30T10:15:34.922Z,7.00
2022-07-30T10:18:02.802Z,6.38
2022-07-30T10:20:34.883Z,6.80
2022-07-30T10:28:03.256Z,6.47
2022-07-30T10:30:31.089Z,7.53
2022-07-30T10:33:00.158Z,10.43
2022-07-30T10:35:34.261Z,6.80
2022-07-30T10:38:07.917Z,6.82
2022-07-30T10:40:39.562Z,6.75
2022-07-30T10:43:34.306Z,7.68
2022-07-30T10:46:09.310Z,6.65
2022-07-30T10:48:49.649Z,5.25
2022-07-30T10:51:25.310Z,7.03
2022-07-30T10:54:01.086Z,6.75
2022-07-30T10:56:28.284Z,7.25
2022-07-30T10:59:08.128Z,6.38
2022-07-30T11:01:48.761Z,5.28
2022-07-30T11:04:20.349Z,7.68
2022-07-30T11:06:47.972Z,6.38
2022-07-30T11:09:41.038Z,7.22
2022-07-30T11:12:11.180Z,6.90
2022-07-30T11:14:45.962Z,7.18
2022-07-30T11:17:21.552Z,8.55
2022-07-30T11:20:07.188Z,7.00
2022-07-30T11:22:44.872Z,7.30
2022-07-30T11:25:51.155Z,6.32
2022-07-30T11:28:36.919Z,7.43
2022-07-30T11:31:10.081Z,6.85
2022-07-30T11:33:37.764Z,7.35
2022-07-30T11:39:01.137Z,5.07
2022-07-30T11:41:33.734Z,5.50
2022-07-30T11:44:30.071Z,7.38
2022-07-30T11:46:56.802Z,8.55
2022-07-30T11:49:23.623Z,7.78
2022-07-30T11:51:51.080Z,7.30
2022-07-30T11:54:18.000Z,6.47
2022-07-30T11:57:02.176Z,6.57
2022-07-30T11:59:30.916Z,6.03
2022-07-30T12:02:00.443Z,6.03
2022-07-30T12:04:27.492Z,6.80
2022-07-30T12:06:54.229Z,6.53
2022-07-30T12:09:27.759Z,6.88
2022-07-30T12:11:55.854Z,6.05
2022-07-30T12:14:22.586Z,8.20
2022-07-30T12:16:51.234Z,6.55
2022-07-30T12:21:45.845Z,7.28
2022-07-30T12:24:15.081Z,5.80
2022-07-30T12:26:42.142Z,8.40
2022-07-30T12:29:19.116Z,6.97
2022-07-30T12:31:46.281Z,7.28
2022-07-30T12:34:23.213Z,5.78
2022-07-30T12:36:50.148Z,7.28
2022-07-30T12:39:27.062Z,8.30
2022-07-30T12:41:57.928Z,8.00
2022-07-30T12:44:41.094Z,7.43
2022-07-30T12:47:25.424Z,5.53
2022-07-30T12:49:53.505Z,7.38
2022-07-30T12:52:28.321Z,7.30
2022-07-30T12:55:10.527Z,6.43
2022-07-30T12:57:55.392Z,8.20
2022-07-30T13:00:51.188Z,8.27
2022-07-30T13:03:22.123Z,8.35
2022-07-30T13:05:50.755Z,8.50
2022-07-30T13:08:18.161Z,8.60
2022-07-30T13:10:55.047Z,9.60
2022-07-30T13:13:21.798Z,9.23
2022-07-30T13:16:07.107Z,9.00
2022-07-30T13:18:35.199Z,9.05
2022-07-30T13:21:02.868Z,7.00
2022-07-30T13:23:30.092Z,7.35
2022-07-30T13:25:57.613Z,8.68
2022-07-30T13:28:25.058Z,8.73
2022-07-30T13:30:52.050Z,9.00
2022-07-30T13:33:18.991Z,8.98
2022-07-30T13:35:45.711Z,9.05
2022-07-30T13:38:13.712Z,9.85
2022-07-30T13:40:40.601Z,10.57
2022-07-30T13:43:07.825Z,9.95
2022-07-30T13:45:35.155Z,9.55
2022-07-30T13:48:02.442Z,9.75
2022-07-30T13:50:29.149Z,7.47
2022-07-30T13:53:01.782Z,9.43
2022-07-30T13:55:29.434Z,10.20
2022-07-30T13:57:56.389Z,9.52
2022-07-30T14:00:23.393Z,10.52
2022-07-30T14:02:50.638Z,10.43
2022-07-30T14:05:18.275Z,9.68
2022-07-30T14:07:45.029Z,9.30
2022-07-30T14:10:11.930Z,9.85
2022-07-30T14:12:40.087Z,9.93
2022-07-30T14:15:07.568Z,9.60
2022-07-30T14:17:34.458Z,10.25
2022-07-30T14:20:01.309Z,10.15
2022-07-30T14:22:28.058Z,9.85
2022-07-30T14:24:54.783Z,11.00
2022-07-30T14:27:21.702Z,9.00
2022-07-30T14:29:48.430Z,9.43
2022-07-30T14:32:15.158Z,10.07
2022-07-30T14:34:49.123Z,10.07
2022-07-30T14:37:16.568Z,7.57
2022-07-30T14:39:43.500Z,8.85
2022-07-30T14:42:10.231Z,11.82
2022-07-30T14:44:37.254Z,10.77
2022-07-30T14:47:04.657Z,8.98
2022-07-30T14:49:31.732Z,9.60
2022-07-30T14:51:58.507Z,9.10
2022-07-30T14:54:25.227Z,9.10
2022-07-30T14:56:57.737Z,9.05
2022-07-30T14:59:26.669Z,9.40
2022-07-30T15:01:55.227Z,8.50
2022-07-30T15:06:48.824Z,11.95
2022-07-30T15:09:15.582Z,12.10
2022-07-30T15:12:07.722Z,9.73
2022-07-30T15:14:29.277Z,9.52
2022-07-30T15:17:00.658Z,9.02
2022-07-30T15:19:30.679Z,9.07
2022-07-30T15:21:58.329Z,7.97
2022-07-30T15:24:25.351Z,7.85
2022-07-30T15:26:55.912Z,9.18
2022-07-30T15:29:24.263Z,9.30
2022-07-30T15:31:51.660Z,9.25
2022-07-30T15:34:18.517Z,9.50
2022-07-30T15:36:45.285Z,9.30
2022-07-30T15:39:12.020Z,9.15
2022-07-30T15:41:38.915Z,9.38
2022-07-30T15:44:05.604Z,9.27
2022-07-30T15:46:32.285Z,8.95
2022-07-30T15:48:59.071Z,9.15
2022-07-30T15:51:25.856Z,9.18
2022-07-30T15:53:52.554Z,5.45
2022-07-30T15:56:19.322Z,9.60
2022-07-30T15:58:46.049Z,11.35
2022-07-30T16:01:12.877Z,10.30
2022-07-30T16:03:39.723Z,8.68
2022-07-30T16:06:06.458Z,9.35
2022-07-30T16:08:33.232Z,9.68
2022-07-30T16:11:03.825Z,9.50
2022-07-30T16:13:31.469Z,9.00
2022-07-30T16:15:58.194Z,8.75
2022-07-30T16:18:24.941Z,9.25
2022-07-30T16:20:51.717Z,8.95
2022-07-30T16:23:21.468Z,9.02
2022-07-30T16:25:48.769Z,10.43
2022-07-30T16:28:15.453Z,9.35
2022-07-30T16:30:51.088Z,9.45
2022-07-30T16:33:19.109Z,10.13
2022-07-30T16:35:48.663Z,9.60
2022-07-30T16:38:18.064Z,9.23
2022-07-30T16:40:45.500Z,9.27
2022-07-30T16:43:12.190Z,8.35
2022-07-30T16:45:38.928Z,8.20
2022-07-30T16:48:05.996Z,8.35
2022-07-30T16:50:33.358Z,8.32
2022-07-30T16:53:00.599Z,8.93
2022-07-30T16:55:27.473Z,6.32
2022-07-30T16:57:54.209Z,8.07
2022-07-30T17:00:20.922Z,6.60
2022-07-30T17:02:47.672Z,7.38
2022-07-30T17:05:14.358Z,8.73
2022-07-30T17:07:41.176Z,8.95
2022-07-30T17:10:11.109Z,8.60
2022-07-30T17:12:39.304Z,9.40
2022-07-30T17:15:07.952Z,8.77
2022-07-30T17:17:34.664Z,10.25
2022-07-30T17:20:02.987Z,9.85
2022-07-30T17:22:30.681Z,8.30
2022-07-30T17:24:57.413Z,8.82
2022-07-30T17:27:26.531Z,7.25
2022-07-30T17:29:53.252Z,9.68
2022-07-30T17:32:20.479Z,12.05
2022-07-30T17:34:48.498Z,10.40
2022-07-30T17:37:16.284Z,11.07
2022-07-30T17:40:26.658Z,9.85
2022-07-30T17:42:29.674Z,10.15
2022-07-30T17:44:56.385Z,9.20
2022-07-30T17:47:23.262Z,9.88
2022-07-30T17:49:49.976Z,11.45
2022-07-30T17:52:16.741Z,10.65
2022-07-30T17:54:43.540Z,10.25
2022-07-30T17:57:12.412Z,11.52
2022-07-30T17:59:39.198Z,8.82
2022-07-30T18:02:06.342Z,10.90
2022-07-30T18:04:34.219Z,9.48
2022-07-30T18:07:01.605Z,10.65
2022-07-30T18:09:30.138Z,9.57
2022-07-30T18:12:05.443Z,8.07
2022-07-30T18:14:32.373Z,10.98
2022-07-30T18:17:00.064Z,10.77
2022-07-30T18:19:27.129Z,8.80
2022-07-30T18:21:54.659Z,10.80
2022-07-30T18:24:24.618Z,13.10
2022-07-30T18:26:51.877Z,10.90
2022-07-30T18:29:18.627Z,11.00
2022-07-30T18:31:45.569Z,13.60
2022-07-30T18:34:12.348Z,10.68
2022-07-30T18:36:39.051Z,11.25
2022-07-30T18:39:05.817Z,10.25
2022-07-30T18:41:32.583Z,10.80
2022-07-30T18:43:59.363Z,11.25
2022-07-30T18:46:26.164Z,11.50
2022-07-30T18:48:53.094Z,11.15
2022-07-30T18:51:19.968Z,12.63
2022-07-30T18:53:47.752Z,10.98
2022-07-30T18:56:14.473Z,12.23
2022-07-30T18:58:41.216Z,11.95
2022-07-30T19:01:07.949Z,9.45
2022-07-30T19:03:34.940Z,11.23
2022-07-30T19:06:01.633Z,11.07
2022-07-30T19:08:28.398Z,10.88
2022-07-30T19:10:55.359Z,10.95
2022-07-30T19:13:24.202Z,10.90
2022-07-30T19:18:17.735Z,11.18
2022-07-30T19:20:44.536Z,12.73
2022-07-30T19:23:12.258Z,12.52
2022-07-30T19:25:39.354Z,11.18
2022-07-30T19:28:06.109Z,11.00
2022-07-30T19:30:33.229Z,10.25
2022-07-30T19:33:12.596Z,11.88
2022-07-30T19:35:41.992Z,10.73
2022-07-30T19:38:09.967Z,8.70
2022-07-30T19:40:42.229Z,10.07
2022-07-30T19:43:10.261Z,11.57
2022-07-30T19:45:46.669Z,10.60
2022-07-30T19:48:13.828Z,9.77
2022-07-30T19:50:40.591Z,8.18
2022-07-30T19:53:07.892Z,10.50
2022-07-30T19:55:37.304Z,8.75
2022-07-30T19:58:16.458Z,8.20
2022-07-30T20:00:49.332Z,10.98
2022-07-30T20:03:16.896Z,10.40
2022-07-30T20:05:57.285Z,9.90
2022-07-30T20:08:27.710Z,11.85
2022-07-30T20:10:57.440Z,10.52
2022-07-30T20:13:44.809Z,13.10
2022-07-30T20:16:13.541Z,9.25
2022-07-30T20:18:40.408Z,10.70
2022-07-30T20:21:14.029Z,9.57
2022-07-30T20:23:41.659Z,10.80
2022-07-30T20:26:12.456Z,10.40
2022-07-30T20:28:57.755Z,10.45
2022-07-30T20:31:25.961Z,10.10
2022-07-30T20:33:52.719Z,8.45
2022-07-30T20:36:19.622Z,11.07
2022-07-30T20:38:47.223Z,10.55
2022-07-30T20:41:14.641Z,10.68
2022-07-30T20:43:51.646Z,10.48
2022-07-30T20:46:20.593Z,13.07
2022-07-30T20:48:50.863Z,9.77
2022-07-30T20:51:17.717Z,11.07
2022-07-30T20:53:45.244Z,10.48
2022-07-30T20:58:59.653Z,9.90
2022-07-30T21:01:28.709Z,10.95
2022-07-30T21:03:57.640Z,11.50
2022-07-30T21:06:26.299Z,10.60
2022-07-30T21:08:53.802Z,13.30
2022-07-30T21:11:22.137Z,11.10
2022-07-30T21:13:49.285Z,12.07
2022-07-30T21:16:16.902Z,9.02
2022-07-30T21:18:49.804Z,12.85
2022-07-30T21:21:17.966Z,11.23
2022-07-30T21:23:57.747Z,10.77
2022-07-30T21:26:24.875Z,9.00
2022-07-30T21:28:51.768Z,11.52
2022-07-30T21:31:18.978Z,12.18
2022-07-30T21:34:05.717Z,11.70
2022-07-30T21:36:32.609Z,11.48
2022-07-30T21:39:00.578Z,11.00
2022-07-30T21:41:40.066Z,11.00
2022-07-30T21:44:07.746Z,12.18
2022-07-30T21:46:34.524Z,12.38
2022-07-30T21:49:01.585Z,12.10
2022-07-30T21:51:28.353Z,13.23
2022-07-30T21:53:57.781Z,12.32
2022-07-30T21:56:24.800Z,12.63
2022-07-30T21:58:51.853Z,13.20
2022-07-30T22:01:22.603Z,12.48
2022-07-30T22:04:03.604Z,12.82
2022-07-30T22:06:39.807Z,12.50
2022-07-30T22:11:56.194Z,11.88
2022-07-30T22:14:23.448Z,11.68
2022-07-30T22:16:52.616Z,12.40
2022-07-30T22:19:21.891Z,12.80
2022-07-30T22:21:50.816Z,12.90
2022-07-30T22:24:29.247Z,13.43
2022-07-30T22:27:01.160Z,13.65
2022-07-30T22:29:34.245Z,13.52
2022-07-30T22:32:02.708Z,14.57
2022-07-30T22:34:29.854Z,13.88
2022-07-30T22:36:57.512Z,12.02
2022-07-30T22:39:32.398Z,14.15
2022-07-30T22:42:12.590Z,11.98
2022-07-30T22:44:39.763Z,14.93
2022-07-30T22:47:18.806Z,15.15
2022-07-30T22:49:56.403Z,14.85
2022-07-30T22:52:27.291Z,14.88
2022-07-30T22:54:55.127Z,14.20
2022-07-30T22:57:22.860Z,14.88
2022-07-30T22:59:58.111Z,14.52
2022-07-30T23:02:25.782Z,12.32
2022-07-30T23:04:54.817Z,14.18
2022-07-30T23:07:23.508Z,15.88
2022-07-30T23:09:55.847Z,14.95
2022-07-30T23:12:23.503Z,14.75
2022-07-30T23:12:29.584Z,10.70
2022-07-30T23:12:31.356Z,12.07
2022-07-30T23:14:50.312Z,15.35
2022-07-30T23:17:17.409Z,14.73
2022-07-30T23:19:44.134Z,14.45
2022-07-30T23:22:10.809Z,14.40
2022-07-30T23:24:37.724Z,14.70
2022-07-30T23:27:05.163Z,20.60
2022-07-30T23:29:32.073Z,27.00
2022-07-30T23:31:58.864Z,22.00
2022-07-30T23:34:25.611Z,21.58
2022-07-30T23:36:52.394Z,19.50
2022-07-30T23:39:19.688Z,19.45
2022-07-30T23:41:46.765Z,17.77
2022-07-30T23:44:13.448Z,17.85
2022-07-30T23:46:40.863Z,17.95
2022-07-30T23:49:07.775Z,16.35
2022-07-30T23:51:34.585Z,16.70
2022-07-30T23:54:01.830Z,15.88
2022-07-30T23:56:28.552Z,14.82
2022-07-30T23:58:55.256Z,14.52
